Wetterdaten: Woche 11.05.15 - 17.05.15 (KW20)
Datum Zeit Temp. A. Feuchte A. Luftdruck Regen Wind Richtung Taupunkt Windchill Windben
11.05.2015 00:00 13,1 C 59 % 1026,2 hPa 0,0 l/m 1,2 km/h N 5,2 C 13,1 C 7,2 km/h
11.05.2015 01:00 12,6 C 58 % 1026,5 hPa 0,0 l/m 1,1 km/h N 4,6 C 12,6 C 6,4 km/h
11.05.2015 02:00 11,9 C 59 % 1026,9 hPa 0,0 l/m 1,2 km/h N 4,1 C 11,9 C 6,8 km/h
11.05.2015 03:00 10,9 C 63 % 1027,5 hPa 0,0 l/m 0,7 km/h N 4,0 C 10,9 C 4,8 km/h
11.05.2015 04:00 9,2 C 67 % 1027,8 hPa 0,0 l/m 0,1 km/h N 3,4 C 9,2 C 0,8 km/h
11.05.2015 05:00 7,3 C 75 % 1028,3 hPa 0,0 l/m 0,0 km/h N 3,1 C 7,3 C 0,0 km/h
11.05.2015 06:00 6,7 C 80 % 1028,8 hPa 0,0 l/m 0,2 km/h N 3,4 C 6,7 C 2,4 km/h
11.05.2015 07:00 10,2 C 71 % 1028,9 hPa 0,0 l/m 2,3 km/h N 5,1 C 10,2 C 7,6 km/h
11.05.2015 08:00 12,4 C 62 % 1028,9 hPa 0,0 l/m 3,5 km/h N 5,3 C 12,4 C 10,5 km/h
11.05.2015 09:00 13,6 C 58 % 1028,6 hPa 0,0 l/m 4,4 km/h N 5,6 C 13,6 C 12,1 km/h
11.05.2015 10:00 14,7 C 56 % 1028,4 hPa 0,0 l/m 5,9 km/h N 6,1 C 14,6 C 15,7 km/h
11.05.2015 11:00 15,8 C 51 % 1028,2 hPa 0,0 l/m 4,7 km/h N 5,7 C 15,8 C 14,5 km/h
11.05.2015 12:00 16,9 C 49 % 1027,7 hPa 0,0 l/m 5,3 km/h N 6,1 C 16,9 C 16,5 km/h
11.05.2015 13:00 17,9 C 45 % 1027,2 hPa 0,0 l/m 5,6 km/h N 5,6 C 17,9 C 16,9 km/h
11.05.2015 14:00 19,0 C 41 % 1026,7 hPa 0,0 l/m 4,4 km/h N 5,3 C 19,0 C 17,3 km/h
11.05.2015 15:00 19,2 C 38 % 1026,2 hPa 0,0 l/m 5,8 km/h N 4,3 C 19,2 C 19,3 km/h
11.05.2015 16:00 19,3 C 36 % 1025,8 hPa 0,0 l/m 4,2 km/h N 3,8 C 19,3 C 14,5 km/h
11.05.2015 17:00 19,7 C 34 % 1025,5 hPa 0,0 l/m 4,1 km/h N 3,2 C 19,7 C 11,7 km/h
11.05.2015 18:00 20,4 C 35 % 1025,1 hPa 0,0 l/m 2,0 km/h N 4,2 C 20,4 C 8,9 km/h
11.05.2015 19:00 19,7 C 36 % 1025,0 hPa 0,0 l/m 0,8 km/h N 4,0 C 19,7 C 4,8 km/h
11.05.2015 20:00 16,7 C 45 % 1025,2 hPa 0,0 l/m 0,0 km/h N 4,6 C 16,7 C 0,4 km/h
11.05.2015 21:00 13,1 C 57 % 1025,7 hPa 0,0 l/m 0,0 km/h N 4,6 C 13,1 C 0,0 km/h
11.05.2015 22:00 10,6 C 63 % 1025,8 hPa 0,0 l/m 0,0 km/h N 4,0 C 10,6 C 0,0 km/h
11.05.2015 23:00 9,2 C 69 % 1025,8 hPa 0,0 l/m 0,0 km/h N 3,7 C 9,2 C 0,0 km/h
12.05.2015 00:00 8,3 C 72 % 1025,8 hPa 0,0 l/m 0,1 km/h N 3,6 C 8,3 C 0,8 km/h
12.05.2015 01:00 7,4 C 74 % 1025,7 hPa 0,0 l/m 0,0 km/h N 3,1 C 7,4 C 0,0 km/h
12.05.2015 02:00 6,2 C 78 % 1025,1 hPa 0,0 l/m 0,0 km/h N 2,7 C 6,2 C 0,0 km/h
12.05.2015 03:00 5,3 C 81 % 1024,9 hPa 0,0 l/m 0,0 km/h N 2,3 C 5,3 C 0,0 km/h
12.05.2015 04:00 4,8 C 83 % 1024,5 hPa 0,0 l/m 0,0 km/h N 2,1 C 4,8 C 0,0 km/h
12.05.2015 05:00 4,4 C 84 % 1024,3 hPa 0,0 l/m 0,0 km/h N 1,9 C 4,4 C 0,0 km/h
12.05.2015 06:00 4,8 C 84 % 1024,3 hPa 0,0 l/m 0,1 km/h N 2,2 C 4,8 C 0,8 km/h
12.05.2015 07:00 7,7 C 84 % 1024,1 hPa 0,0 l/m 0,3 km/h N 5,1 C 7,7 C 3,6 km/h
12.05.2015 08:00 11,7 C 76 % 1024,1 hPa 0,0 l/m 0,5 km/h N 7,6 C 11,7 C 4,0 km/h
12.05.2015 09:00 15,4 C 61 % 1023,9 hPa 0,0 l/m 0,9 km/h N 8,0 C 15,4 C 6,8 km/h
12.05.2015 10:00 18,9 C 55 % 1023,3 hPa 0,0 l/m 0,9 km/h N 9,6 C 18,9 C 6,0 km/h
12.05.2015 11:00 21,0 C 51 % 1022,7 hPa 0,0 l/m 1,6 km/h N 10,3 C 21,0 C 7,6 km/h
12.05.2015 12:00 24,8 C 39 % 1021,8 hPa 0,0 l/m 2,0 km/h N 9,9 C 24,8 C 11,3 km/h
12.05.2015 13:00 26,3 C 36 % 1021,0 hPa 0,0 l/m 1,4 km/h N 10,0 C 26,3 C 9,6 km/h
12.05.2015 14:00 27,0 C 35 % 1020,3 hPa 0,0 l/m 2,3 km/h N 10,2 C 27,0 C 13,7 km/h
12.05.2015 15:00 26,3 C 36 % 1019,6 hPa 0,0 l/m 3,0 km/h N 9,8 C 26,3 C 12,1 km/h
12.05.2015 16:00 25,4 C 37 % 1019,3 hPa 0,0 l/m 3,1 km/h N 9,6 C 25,4 C 11,3 km/h
12.05.2015 17:00 24,9 C 38 % 1018,9 hPa 0,0 l/m 5,0 km/h N 9,5 C 24,9 C 16,9 km/h
12.05.2015 18:00 24,0 C 43 % 1018,2 hPa 0,0 l/m 5,3 km/h N 10,4 C 24,0 C 16,5 km/h
12.05.2015 19:00 22,9 C 46 % 1017,5 hPa 0,0 l/m 2,5 km/h N 10,5 C 22,9 C 10,9 km/h
12.05.2015 20:00 21,1 C 50 % 1017,0 hPa 0,0 l/m 1,3 km/h N 10,2 C 21,1 C 8,0 km/h
12.05.2015 21:00 19,7 C 54 % 1016,6 hPa 0,0 l/m 0,3 km/h N 10,1 C 19,7 C 4,0 km/h
12.05.2015 22:00 18,4 C 59 % 1016,3 hPa 0,0 l/m 0,2 km/h N 10,2 C 18,4 C 2,0 km/h
12.05.2015 23:00 16,2 C 68 % 1016,0 hPa 0,0 l/m 0,1 km/h N 10,2 C 16,2 C 0,8 km/h
13.05.2015 00:00 14,5 C 75 % 1015,5 hPa 0,0 l/m 0,0 km/h N 10,1 C 14,5 C 0,0 km/h
13.05.2015 01:00 13,7 C 79 % 1015,2 hPa 0,0 l/m 0,0 km/h N 10,1 C 13,7 C 0,0 km/h
13.05.2015 02:00 13,3 C 81 % 1014,9 hPa 0,0 l/m 0,0 km/h N 10,1 C 13,3 C 0,4 km/h
13.05.2015 03:00 13,6 C 81 % 1015,2 hPa 0,0 l/m 1,4 km/h N 10,4 C 13,6 C 4,8 km/h
13.05.2015 04:00 14,4 C 77 % 1016,0 hPa 0,0 l/m 0,3 km/h N 10,4 C 14,4 C 4,0 km/h
13.05.2015 05:00 13,9 C 77 % 1016,7 hPa 0,0 l/m 0,2 km/h N 9,9 C 13,9 C 2,0 km/h
13.05.2015 06:00 14,3 C 79 % 1017,5 hPa 0,0 l/m 0,6 km/h N 10,6 C 14,3 C 5,2 km/h
13.05.2015 07:00 17,3 C 73 % 1018,0 hPa 0,0 l/m 4,9 km/h N 12,3 C 17,3 C 14,5 km/h
13.05.2015 08:00 17,4 C 76 % 1018,5 hPa 0,0 l/m 7,0 km/h N 13,2 C 17,1 C 16,5 km/h
13.05.2015 09:00 16,8 C 80 % 1019,1 hPa 0,3 l/m 5,3 km/h N 13,2 C 16,7 C 14,5 km/h
13.05.2015 10:00 16,5 C 82 % 1019,3 hPa 0,3 l/m 4,9 km/h N 13,4 C 16,5 C 13,3 km/h
13.05.2015 11:00 17,0 C 80 % 1019,3 hPa 0,0 l/m 5,2 km/h N 13,5 C 17,0 C 14,1 km/h
13.05.2015 12:00 17,1 C 77 % 1019,0 hPa 0,0 l/m 3,2 km/h N 13,0 C 17,1 C 10,1 km/h
13.05.2015 13:00 18,0 C 72 % 1018,3 hPa 0,0 l/m 1,7 km/h N 12,8 C 18,0 C 7,6 km/h
13.05.2015 14:00 19,6 C 66 % 1016,9 hPa 0,0 l/m 3,4 km/h N 13,1 C 19,6 C 12,9 km/h
13.05.2015 15:00 20,8 C 65 % 1015,6 hPa 0,0 l/m 4,7 km/h N 13,9 C 20,8 C 13,7 km/h
13.05.2015 16:00 21,3 C 65 % 1014,5 hPa 0,0 l/m 3,2 km/h N 14,3 C 21,3 C 12,4 km/h
13.05.2015 17:00 22,0 C 64 % 1013,4 hPa 0,0 l/m 1,4 km/h N 14,8 C 22,0 C 7,6 km/h
13.05.2015 18:00 22,3 C 62 % 1012,1 hPa 0,0 l/m 0,4 km/h N 14,6 C 22,3 C 4,0 km/h
13.05.2015 19:00 21,8 C 64 % 1011,8 hPa 0,0 l/m 0,3 km/h N 14,6 C 21,8 C 4,4 km/h
13.05.2015 20:00 20,5 C 67 % 1011,1 hPa 0,0 l/m 1,3 km/h N 14,2 C 20,5 C 8,0 km/h
13.05.2015 21:00 19,5 C 73 % 1011,0 hPa 0,0 l/m 1,0 km/h N 14,5 C 19,5 C 6,4 km/h
13.05.2015 22:00 18,3 C 77 % 1010,0 hPa 0,0 l/m 0,1 km/h N 14,2 C 18,3 C 2,8 km/h
13.05.2015 23:00 16,3 C 79 % 1008,9 hPa 0,0 l/m 0,0 km/h N 12,7 C 16,3 C 0,4 km/h
14.05.2015 00:00 15,3 C 83 % 1008,4 hPa 0,0 l/m 0,1 km/h N 12,4 C 15,3 C 2,0 km/h
14.05.2015 01:00 15,1 C 83 % 1007,5 hPa 0,0 l/m 0,2 km/h N 12,2 C 15,1 C 1,6 km/h
14.05.2015 02:00 15,5 C 82 % 1008,1 hPa 0,5 l/m 3,9 km/h N 12,5 C 15,5 C 15,3 km/h
14.05.2015 03:00 15,7 C 82 % 1008,2 hPa 3,6 l/m 1,2 km/h N 12,5 C 15,7 C 8,0 km/h
14.05.2015 04:00 13,7 C 83 % 1006,5 hPa 0,3 l/m 0,5 km/h N 10,8 C 13,7 C 5,2 km/h
14.05.2015 05:00 12,8 C 83 % 1006,5 hPa 0,0 l/m 0,3 km/h N 10,1 C 12,8 C 4,0 km/h
14.05.2015 06:00 12,8 C 83 % 1006,3 hPa 0,0 l/m 0,4 km/h N 10,0 C 12,8 C 6,0 km/h
14.05.2015 07:00 15,2 C 81 % 1006,8 hPa 0,0 l/m 6,3 km/h N 11,9 C 14,5 C 22,5 km/h
14.05.2015 08:00 17,2 C 76 % 1007,7 hPa 0,0 l/m 10,8 km/h N 13,0 C 15,2 C 28,2 km/h
14.05.2015 09:00 16,5 C 79 % 1008,6 hPa 0,0 l/m 9,3 km/h N 12,8 C 15,1 C 23,7 km/h
14.05.2015 10:00 18,3 C 71 % 1008,4 hPa 0,0 l/m 11,0 km/h N 13,0 C 16,4 C 25,3 km/h
14.05.2015 11:00 18,4 C 69 % 1008,6 hPa 2,1 l/m 9,4 km/h N 12,5 C 17,1 C 27,3 km/h
14.05.2015 12:00 14,2 C 81 % 1009,4 hPa 4,9 l/m 4,6 km/h N 10,9 C 14,2 C 16,9 km/h
14.05.2015 13:00 15,6 C 76 % 1009,2 hPa 0,0 l/m 4,7 km/h N 11,3 C 15,6 C 14,1 km/h
14.05.2015 14:00 18,1 C 70 % 1008,9 hPa 0,0 l/m 2,3 km/h N 12,5 C 18,1 C 11,7 km/h
14.05.2015 15:00 18,6 C 66 % 1008,9 hPa 0,0 l/m 1,5 km/h N 12,2 C 18,6 C 8,4 km/h
14.05.2015 16:00 19,2 C 63 % 1008,5 hPa 0,0 l/m 1,9 km/h N 12,0 C 19,2 C 9,7 km/h
14.05.2015 17:00 18,8 C 62 % 1009,0 hPa 0,0 l/m 1,1 km/h N 11,2 C 18,8 C 6,8 km/h
14.05.2015 18:00 17,5 C 72 % 1009,1 hPa 0,0 l/m 0,3 km/h N 12,3 C 17,5 C 4,0 km/h
14.05.2015 19:00 15,9 C 78 % 1009,6 hPa 0,5 l/m 0,2 km/h N 12,1 C 15,9 C 2,4 km/h
14.05.2015 20:00 14,5 C 82 % 1009,9 hPa 0,0 l/m 0,1 km/h N 11,4 C 14,5 C 2,8 km/h
14.05.2015 21:00 13,9 C 83 % 1010,5 hPa 0,0 l/m 1,0 km/h N 11,1 C 13,9 C 5,2 km/h
14.05.2015 22:00 13,7 C 83 % 1010,7 hPa 0,0 l/m 0,7 km/h N 10,8 C 13,7 C 5,6 km/h
14.05.2015 23:00 13,3 C 83 % 1010,8 hPa 0,0 l/m 0,5 km/h N 10,4 C 13,3 C 1,6 km/h
15.05.2015 00:00 12,9 C 84 % 1011,1 hPa 0,0 l/m 0,0 km/h N 10,3 C 12,9 C 0,8 km/h
15.05.2015 01:00 12,9 C 84 % 1011,0 hPa 0,0 l/m 0,0 km/h N 10,3 C 12,9 C 0,0 km/h
15.05.2015 02:00 12,9 C 83 % 1010,7 hPa 0,0 l/m 0,1 km/h N 10,1 C 12,9 C 2,0 km/h
15.05.2015 03:00 12,8 C 83 % 1010,5 hPa 0,0 l/m 0,0 km/h N 10,0 C 12,8 C 0,0 km/h
15.05.2015 04:00 12,3 C 84 % 1010,5 hPa 0,0 l/m 0,1 km/h N 9,7 C 12,3 C 2,4 km/h
15.05.2015 05:00 12,1 C 83 % 1010,5 hPa 0,0 l/m 0,0 km/h N 9,3 C 12,1 C 1,2 km/h
15.05.2015 06:00 12,0 C 82 % 1010,8 hPa 0,0 l/m 0,1 km/h N 9,0 C 12,0 C 1,6 km/h
15.05.2015 07:00 12,1 C 81 % 1011,3 hPa 0,0 l/m 0,1 km/h N 8,8 C 12,1 C 2,8 km/h
15.05.2015 08:00 12,3 C 76 % 1011,9 hPa 0,0 l/m 1,0 km/h N 8,3 C 12,3 C 7,2 km/h
15.05.2015 09:00 12,9 C 73 % 1012,0 hPa 0,0 l/m 1,7 km/h N 8,2 C 12,9 C 10,0 km/h
15.05.2015 10:00 13,8 C 73 % 1012,8 hPa 0,0 l/m 0,6 km/h N 9,1 C 13,8 C 5,2 km/h
15.05.2015 11:00 14,1 C 72 % 1013,0 hPa 0,0 l/m 1,4 km/h N 9,1 C 14,1 C 8,4 km/h
15.05.2015 12:00 14,6 C 74 % 1013,0 hPa 0,0 l/m 1,2 km/h N 10,0 C 14,6 C 8,0 km/h
15.05.2015 13:00 14,9 C 72 % 1013,5 hPa 0,0 l/m 3,1 km/h N 9,7 C 14,9 C 10,1 km/h
15.05.2015 14:00 15,4 C 72 % 1013,6 hPa 0,0 l/m 2,6 km/h N 10,3 C 15,4 C 9,3 km/h
15.05.2015 15:00 15,9 C 68 % 1013,7 hPa 0,0 l/m 1,4 km/h N 9,9 C 15,9 C 9,6 km/h
15.05.2015 16:00 15,7 C 64 % 1013,9 hPa 0,0 l/m 2,5 km/h N 8,8 C 15,7 C 9,3 km/h
15.05.2015 17:00 15,4 C 67 % 1014,2 hPa 0,0 l/m 2,0 km/h N 9,2 C 15,4 C 9,3 km/h
15.05.2015 18:00 14,9 C 69 % 1014,5 hPa 0,0 l/m 1,3 km/h N 9,3 C 14,9 C 8,0 km/h
15.05.2015 19:00 14,6 C 71 % 1014,9 hPa 0,0 l/m 0,9 km/h N 9,4 C 14,6 C 6,8 km/h
15.05.2015 20:00 14,3 C 73 % 1015,3 hPa 0,0 l/m 0,2 km/h N 9,5 C 14,3 C 3,2 km/h
15.05.2015 21:00 13,9 C 76 % 1016,1 hPa 0,0 l/m 0,0 km/h N 9,7 C 13,9 C 1,2 km/h
15.05.2015 22:00 13,3 C 79 % 1016,7 hPa 0,0 l/m 0,0 km/h N 9,6 C 13,3 C 0,0 km/h
15.05.2015 23:00 12,3 C 81 % 1017,3 hPa 0,0 l/m 0,0 km/h N 9,1 C 12,3 C 0,0 km/h
16.05.2015 00:00 11,5 C 83 % 1018,0 hPa 0,0 l/m 0,0 km/h N 8,6 C 11,5 C 0,0 km/h
16.05.2015 01:00 10,9 C 84 % 1017,9 hPa 0,0 l/m 0,0 km/h N 8,3 C 10,9 C 0,0 km/h
16.05.2015 02:00 11,1 C 84 % 1018,0 hPa 0,0 l/m 0,4 km/h N 8,5 C 11,1 C 3,2 km/h
16.05.2015 03:00 11,3 C 84 % 1018,1 hPa 0,0 l/m 0,0 km/h N 8,7 C 11,3 C 0,4 km/h
16.05.2015 04:00 10,9 C 84 % 1018,3 hPa 0,0 l/m 0,0 km/h N 8,3 C 10,9 C 0,4 km/h
16.05.2015 05:00 9,9 C 84 % 1018,8 hPa 0,0 l/m 0,0 km/h N 7,3 C 9,9 C 1,6 km/h
16.05.2015 06:00 10,6 C 82 % 1019,4 hPa 0,0 l/m 0,1 km/h N 7,7 C 10,6 C 2,4 km/h
16.05.2015 07:00 11,5 C 82 % 1020,3 hPa 0,0 l/m 0,0 km/h N 8,5 C 11,5 C 0,4 km/h
16.05.2015 08:00 12,9 C 83 % 1020,7 hPa 0,0 l/m 1,5 km/h N 10,0 C 12,9 C 6,4 km/h
16.05.2015 09:00 15,2 C 75 % 1020,8 hPa 0,0 l/m 3,6 km/h N 10,8 C 15,2 C 10,5 km/h
16.05.2015 10:00 17,6 C 64 % 1020,7 hPa 0,0 l/m 2,5 km/h N 10,6 C 17,6 C 8,0 km/h
16.05.2015 11:00 19,7 C 55 % 1020,4 hPa 0,0 l/m 1,8 km/h N 10,3 C 19,7 C 8,9 km/h
16.05.2015 12:00 19,7 C 52 % 1020,3 hPa 0,0 l/m 3,6 km/h N 9,4 C 19,7 C 13,3 km/h
16.05.2015 13:00 20,9 C 48 % 1019,8 hPa 0,0 l/m 4,0 km/h N 9,4 C 20,9 C 14,9 km/h
16.05.2015 14:00 21,2 C 49 % 1019,3 hPa 0,0 l/m 5,4 km/h N 10,0 C 21,2 C 18,1 km/h
16.05.2015 15:00 21,5 C 47 % 1018,8 hPa 0,0 l/m 5,8 km/h N 9,6 C 21,5 C 18,1 km/h
16.05.2015 16:00 21,8 C 45 % 1018,5 hPa 0,0 l/m 7,3 km/h N 9,3 C 21,4 C 19,7 km/h
16.05.2015 17:00 22,2 C 42 % 1018,6 hPa 0,0 l/m 5,7 km/h N 8,5 C 22,2 C 20,1 km/h
16.05.2015 18:00 22,5 C 43 % 1018,5 hPa 0,0 l/m 5,0 km/h N 9,2 C 22,4 C 20,9 km/h
16.05.2015 19:00 21,6 C 47 % 1018,6 hPa 0,0 l/m 1,9 km/h N 9,7 C 21,6 C 14,9 km/h
16.05.2015 20:00 19,8 C 52 % 1018,6 hPa 0,0 l/m 0,8 km/h N 9,5 C 19,8 C 9,7 km/h
16.05.2015 21:00 18,8 C 54 % 1019,0 hPa 0,0 l/m 2,3 km/h N 9,3 C 18,8 C 13,7 km/h
16.05.2015 22:00 18,7 C 53 % 1019,3 hPa 0,0 l/m 3,0 km/h N 8,9 C 18,7 C 16,9 km/h
16.05.2015 23:00 18,7 C 51 % 1019,4 hPa 0,0 l/m 3,5 km/h N 8,4 C 18,7 C 15,7 km/h
17.05.2015 00:00 18,8 C 50 % 1019,6 hPa 0,0 l/m 5,6 km/h N 8,1 C 18,8 C 21,7 km/h
17.05.2015 01:00 18,5 C 51 % 1019,5 hPa 0,0 l/m 4,3 km/h N 8,1 C 18,5 C 15,3 km/h
17.05.2015 02:00 18,3 C 52 % 1019,6 hPa 0,0 l/m 3,7 km/h N 8,3 C 18,3 C 16,5 km/h
17.05.2015 03:00 17,8 C 54 % 1019,8 hPa 0,0 l/m 1,9 km/h N 8,3 C 17,8 C 9,7 km/h
17.05.2015 04:00 17,1 C 58 % 1020,3 hPa 0,0 l/m 2,5 km/h N 8,7 C 17,1 C 10,9 km/h
17.05.2015 05:00 16,5 C 59 % 1020,8 hPa 0,0 l/m 4,6 km/h N 8,4 C 16,5 C 14,5 km/h
17.05.2015 06:00 15,8 C 59 % 1021,5 hPa 0,0 l/m 2,7 km/h N 7,7 C 15,8 C 10,1 km/h
17.05.2015 07:00 15,5 C 58 % 1022,2 hPa 0,0 l/m 4,7 km/h N 7,3 C 15,5 C 12,5 km/h
17.05.2015 08:00 15,3 C 62 % 1022,9 hPa 0,0 l/m 4,8 km/h N 8,1 C 15,3 C 16,9 km/h
17.05.2015 09:00 14,3 C 70 % 1023,3 hPa 0,0 l/m 4,0 km/h N 8,8 C 14,3 C 13,3 km/h
17.05.2015 10:00 14,6 C 72 % 1023,0 hPa 0,0 l/m 4,4 km/h N 9,6 C 14,6 C 13,3 km/h
17.05.2015 11:00 16,1 C 68 % 1022,6 hPa 0,0 l/m 7,3 km/h N 10,1 C 15,6 C 18,9 km/h
17.05.2015 12:00 17,2 C 67 % 1022,3 hPa 0,0 l/m 6,0 km/h N 10,9 C 17,0 C 17,3 km/h
17.05.2015 13:00 18,2 C 62 % 1021,9 hPa 0,0 l/m 6,2 km/h N 10,8 C 18,1 C 18,5 km/h
17.05.2015 14:00 18,1 C 63 % 1021,5 hPa 0,0 l/m 5,9 km/h N 10,9 C 17,7 C 18,1 km/h
17.05.2015 15:00 18,0 C 64 % 1021,0 hPa 0,0 l/m 7,9 km/h N 11,0 C 17,3 C 22,9 km/h
17.05.2015 16:00 18,8 C 59 % 1020,5 hPa 0,0 l/m 8,1 km/h N 10,7 C 18,0 C 27,0 km/h
17.05.2015 17:00 19,1 C 57 % 1020,1 hPa 0,0 l/m 9,9 km/h N 10,3 C 17,7 C 27,8 km/h
17.05.2015 18:00 19,3 C 55 % 1019,9 hPa 0,0 l/m 7,5 km/h N 10,1 C 18,8 C 23,7 km/h
17.05.2015 19:00 18,3 C 57 % 1019,8 hPa 0,0 l/m 6,3 km/h N 9,6 C 18,2 C 20,5 km/h
17.05.2015 20:00 16,8 C 60 % 1020,0 hPa 0,0 l/m 5,5 km/h N 9,1 C 16,8 C 17,7 km/h
17.05.2015 21:00 16,1 C 64 % 1020,4 hPa 0,0 l/m 5,5 km/h N 9,2 C 15,9 C 16,1 km/h
17.05.2015 22:00 15,9 C 65 % 1020,6 hPa 0,0 l/m 4,8 km/h N 9,3 C 15,8 C 16,9 km/h
17.05.2015 23:00 15,4 C 67 % 1020,6 hPa 0,0 l/m 2,1 km/h N 9,3 C 15,4 C 10,5 km/h
Min-Datum _ 12.05.15 11.05.15 14.05.15 - 11.05.15 - 12.05.15 12.05.15 11.05.15
_ Min-Zeit 05:30 17:15 06:00 - 04:15 - 05:30 05:30 04:15
Minimum _ 4,3 C 31 % 1006,0 hPa - 0,0 km/h - 1,8 C 4,3 C 0,0 km/h
Max-Datum _ 12.05.15 12.05.15 11.05.15 14.05.15 14.05.15 - 13.05.15 12.05.15 14.05.15
_ Max-Zeit 14:46 05:00 06:45 12:16 10:45 - 18:00 14:46 11:45
Maximum _ 27,3 C 84 % 1029,0 hPa 4,9 l/m 12,1 km/h
N
- 14,9 C 27,3 C 37,0 km/h
N
Durchschnitt _ 15,9 C 66 % 1017,9 hPa #12,5 l/m 2,5 km/h N 9,2 C 15,8 C 9,2 km/h